sensor_id;sensor_type;location;lat;lon;timestamp;pressure;altitude;pressure_sealevel;temperature;humidity
10732;BME280;5417;42.686;23.244;2023-04-30T00:01:46;93962.03;;;12.71;64.51
10732;BME280;5417;42.686;23.244;2023-04-30T00:04:15;93978.06;;;12.76;65.12
10732;BME280;5417;42.686;23.244;2023-04-30T00:06:42;93979.88;;;12.76;64.77
10732;BME280;5417;42.686;23.244;2023-04-30T00:09:11;93967.53;;;12.68;64.24
10732;BME280;5417;42.686;23.244;2023-04-30T00:11:38;93968.16;;;12.62;64.76
10732;BME280;5417;42.686;23.244;2023-04-30T00:14:06;93981.72;;;12.66;64.67
10732;BME280;5417;42.686;23.244;2023-04-30T00:16:35;93965.44;;;12.54;64.69
10732;BME280;5417;42.686;23.244;2023-04-30T00:19:09;93981.63;;;12.57;64.32
10732;BME280;5417;42.686;23.244;2023-04-30T00:21:36;93984.69;;;12.53;63.45
10732;BME280;5417;42.686;23.244;2023-04-30T00:24:03;93967.41;;;12.42;63.49
10732;BME280;5417;42.686;23.244;2023-04-30T00:26:45;93957.72;;;12.35;63.92
10732;BME280;5417;42.686;23.244;2023-04-30T00:29:23;93981.81;;;12.46;63.29
10732;BME280;5417;42.686;23.244;2023-04-30T00:31:55;93986.22;;;12.46;63.61
10732;BME280;5417;42.686;23.244;2023-04-30T00:34:24;93976.75;;;12.45;63.36
10732;BME280;5417;42.686;23.244;2023-04-30T00:36:56;93972.25;;;12.37;63.92
10732;BME280;5417;42.686;23.244;2023-04-30T00:39:23;93988.16;;;12.44;63.56
10732;BME280;5417;42.686;23.244;2023-04-30T00:41:54;93982.56;;;12.39;64.00
10732;BME280;5417;42.686;23.244;2023-04-30T00:44:21;93979.56;;;12.33;63.68
10732;BME280;5417;42.686;23.244;2023-04-30T00:46:48;93976.94;;;12.33;64.18
10732;BME280;5417;42.686;23.244;2023-04-30T00:49:16;93956.72;;;12.18;63.86
10732;BME280;5417;42.686;23.244;2023-04-30T00:51:44;93980.81;;;12.29;64.29
10732;BME280;5417;42.686;23.244;2023-04-30T00:54:12;93970.53;;;12.28;64.81
10732;BME280;5417;42.686;23.244;2023-04-30T00:56:40;93977.16;;;12.22;64.25
10732;BME280;5417;42.686;23.244;2023-04-30T00:59:07;93968.03;;;12.09;64.97
10732;BME280;5417;42.686;23.244;2023-04-30T01:01:34;93972.66;;;12.15;65.18
10732;BME280;5417;42.686;23.244;2023-04-30T01:04:01;93975.84;;;12.09;64.97
10732;BME280;5417;42.686;23.244;2023-04-30T01:06:30;93965.56;;;12.07;65.55
10732;BME280;5417;42.686;23.244;2023-04-30T01:08:57;93975.31;;;12.05;65.69
10732;BME280;5417;42.686;23.244;2023-04-30T01:11:32;93965.47;;;11.99;65.45
10732;BME280;5417;42.686;23.244;2023-04-30T01:14:10;93964.50;;;12.00;65.89
10732;BME280;5417;42.686;23.244;2023-04-30T01:16:42;93963.09;;;11.96;65.77
10732;BME280;5417;42.686;23.244;2023-04-30T01:19:23;93972.03;;;11.93;65.89
10732;BME280;5417;42.686;23.244;2023-04-30T01:21:56;93965.47;;;11.89;65.43
10732;BME280;5417;42.686;23.244;2023-04-30T01:24:42;93962.44;;;11.94;65.29
10732;BME280;5417;42.686;23.244;2023-04-30T01:27:23;93969.56;;;12.02;65.33
10732;BME280;5417;42.686;23.244;2023-04-30T01:29:58;93962.94;;;12.07;65.07
10732;BME280;5417;42.686;23.244;2023-04-30T01:32:32;93961.84;;;12.10;63.78
10732;BME280;5417;42.686;23.244;2023-04-30T01:35:05;93969.19;;;12.24;63.68
10732;BME280;5417;42.686;23.244;2023-04-30T01:37:56;93974.41;;;12.24;63.87
10732;BME280;5417;42.686;23.244;2023-04-30T01:40:38;93966.56;;;12.24;63.77
10732;BME280;5417;42.686;23.244;2023-04-30T01:43:28;93965.38;;;12.18;63.77
10732;BME280;5417;42.686;23.244;2023-04-30T01:46:06;93977.00;;;12.24;63.98
10732;BME280;5417;42.686;23.244;2023-04-30T01:48:41;93977.00;;;12.24;64.12
10732;BME280;5417;42.686;23.244;2023-04-30T01:51:15;93973.56;;;12.23;64.68
10732;BME280;5417;42.686;23.244;2023-04-30T01:53:45;93972.06;;;12.21;65.17
10732;BME280;5417;42.686;23.244;2023-04-30T01:56:17;93974.97;;;12.18;66.07
10732;BME280;5417;42.686;23.244;2023-04-30T01:58:48;93972.13;;;12.11;66.47
10732;BME280;5417;42.686;23.244;2023-04-30T02:01:29;93976.00;;;12.07;66.01
10732;BME280;5417;42.686;23.244;2023-04-30T02:03:58;93985.31;;;12.10;66.50
10732;BME280;5417;42.686;23.244;2023-04-30T02:06:39;93983.81;;;12.07;66.68
10732;BME280;5417;42.686;23.244;2023-04-30T02:09:10;93982.72;;;12.10;65.45
10732;BME280;5417;42.686;23.244;2023-04-30T02:11:41;93981.75;;;12.11;65.06
10732;BME280;5417;42.686;23.244;2023-04-30T02:14:07;93972.28;;;12.10;65.16
10732;BME280;5417;42.686;23.244;2023-04-30T02:16:39;93968.69;;;12.11;65.44
10732;BME280;5417;42.686;23.244;2023-04-30T02:19:06;93973.78;;;12.12;66.13
10732;BME280;5417;42.686;23.244;2023-04-30T02:21:33;93944.31;;;11.92;65.67
10732;BME280;5417;42.686;23.244;2023-04-30T02:24:03;93972.72;;;12.05;65.97
10732;BME280;5417;42.686;23.244;2023-04-30T02:26:32;93957.88;;;11.96;66.94
10732;BME280;5417;42.686;23.244;2023-04-30T02:29:00;93960.38;;;11.97;66.98
10732;BME280;5417;42.686;23.244;2023-04-30T02:31:27;93964.50;;;12.00;67.55
10732;BME280;5417;42.686;23.244;2023-04-30T02:33:56;93976.16;;;11.96;67.29
10732;BME280;5417;42.686;23.244;2023-04-30T02:36:27;93977.81;;;11.97;68.33
10732;BME280;5417;42.686;23.244;2023-04-30T02:38:57;93972.31;;;11.90;68.09
10732;BME280;5417;42.686;23.244;2023-04-30T02:41:24;93971.78;;;11.87;68.93
10732;BME280;5417;42.686;23.244;2023-04-30T02:43:51;93977.53;;;11.90;69.54
10732;BME280;5417;42.686;23.244;2023-04-30T02:46:21;93973.59;;;11.86;69.39
10732;BME280;5417;42.686;23.244;2023-04-30T02:48:56;93973.88;;;11.83;69.06
10732;BME280;5417;42.686;23.244;2023-04-30T02:51:25;93986.63;;;11.86;69.09
10732;BME280;5417;42.686;23.244;2023-04-30T02:53:57;93987.28;;;11.88;70.19
10732;BME280;5417;42.686;23.244;2023-04-30T02:56:30;93986.19;;;11.91;70.51
10732;BME280;5417;42.686;23.244;2023-04-30T02:58:56;93977.16;;;11.85;70.03
10732;BME280;5417;42.686;23.244;2023-04-30T03:01:23;93989.91;;;11.88;70.00
10732;BME280;5417;42.686;23.244;2023-04-30T03:03:50;93990.72;;;11.89;70.44
10732;BME280;5417;42.686;23.244;2023-04-30T03:06:19;93985.38;;;11.90;70.00
10732;BME280;5417;42.686;23.244;2023-04-30T03:08:46;93978.78;;;11.86;70.29
10732;BME280;5417;42.686;23.244;2023-04-30T03:11:13;93974.69;;;11.84;69.82
10732;BME280;5417;42.686;23.244;2023-04-30T03:13:43;93969.19;;;11.77;70.10
10732;BME280;5417;42.686;23.244;2023-04-30T03:16:16;93989.63;;;11.91;70.28
10732;BME280;5417;42.686;23.244;2023-04-30T03:18:43;93993.03;;;11.92;70.26
10732;BME280;5417;42.686;23.244;2023-04-30T03:21:10;93990.03;;;11.87;70.25
10732;BME280;5417;42.686;23.244;2023-04-30T03:23:45;93984.31;;;11.83;70.42
10732;BME280;5417;42.686;23.244;2023-04-30T03:26:12;94000.34;;;11.88;69.55
10732;BME280;5417;42.686;23.244;2023-04-30T03:28:40;93980.59;;;11.76;68.95
10732;BME280;5417;42.686;23.244;2023-04-30T03:31:09;93994.44;;;11.86;68.87
10732;BME280;5417;42.686;23.244;2023-04-30T03:33:45;93995.84;;;11.81;68.80
10732;BME280;5417;42.686;23.244;2023-04-30T03:36:12;94001.88;;;11.81;68.92
10732;BME280;5417;42.686;23.244;2023-04-30T03:38:41;94008.59;;;11.84;69.85
10732;BME280;5417;42.686;23.244;2023-04-30T03:41:12;94011.19;;;11.84;69.16
10732;BME280;5417;42.686;23.244;2023-04-30T03:43:39;94008.06;;;11.80;69.83
10732;BME280;5417;42.686;23.244;2023-04-30T03:46:06;94019.00;;;11.84;69.68
10732;BME280;5417;42.686;23.244;2023-04-30T03:48:32;94012.16;;;11.83;70.09
10732;BME280;5417;42.686;23.244;2023-04-30T03:50:59;94014.63;;;11.84;70.51
10732;BME280;5417;42.686;23.244;2023-04-30T03:53:40;94027.38;;;11.97;70.79
10732;BME280;5417;42.686;23.244;2023-04-30T03:56:07;94023.81;;;11.98;70.39
10732;BME280;5417;42.686;23.244;2023-04-30T03:58:34;94025.69;;;11.96;70.98
10732;BME280;5417;42.686;23.244;2023-04-30T04:01:02;94010.63;;;11.90;69.86
10732;BME280;5417;42.686;23.244;2023-04-30T04:03:29;94035.59;;;12.02;69.47
10732;BME280;5417;42.686;23.244;2023-04-30T04:06:02;94024.19;;;12.03;69.31
10732;BME280;5417;42.686;23.244;2023-04-30T04:08:31;94027.19;;;12.08;69.44
10732;BME280;5417;42.686;23.244;2023-04-30T04:10:59;94034.75;;;12.11;69.99
10732;BME280;5417;42.686;23.244;2023-04-30T04:13:26;94035.41;;;12.13;70.05
10732;BME280;5417;42.686;23.244;2023-04-30T04:15:58;94031.44;;;12.09;70.70
10732;BME280;5417;42.686;23.244;2023-04-30T04:18:27;94033.19;;;12.18;70.37
10732;BME280;5417;42.686;23.244;2023-04-30T04:20:56;94029.34;;;12.22;70.74
10732;BME280;5417;42.686;23.244;2023-04-30T04:23:36;94032.19;;;12.29;70.65
10732;BME280;5417;42.686;23.244;2023-04-30T04:26:04;94031.91;;;12.32;70.50
10732;BME280;5417;42.686;23.244;2023-04-30T04:28:31;94042.88;;;12.36;69.64
10732;BME280;5417;42.686;23.244;2023-04-30T04:30:58;94049.81;;;12.54;68.93
10732;BME280;5417;42.686;23.244;2023-04-30T04:33:30;94028.34;;;12.60;67.34
10732;BME280;5417;42.686;23.244;2023-04-30T04:36:07;94035.88;;;12.63;65.89
10732;BME280;5417;42.686;23.244;2023-04-30T04:38:36;94042.81;;;12.55;65.77
10732;BME280;5417;42.686;23.244;2023-04-30T04:41:08;94039.97;;;12.39;65.76
10732;BME280;5417;42.686;23.244;2023-04-30T04:43:38;94042.19;;;12.33;66.39
10732;BME280;5417;42.686;23.244;2023-04-30T04:46:05;94051.13;;;12.31;67.51
10732;BME280;5417;42.686;23.244;2023-04-30T04:48:33;94051.41;;;12.28;66.96
10732;BME280;5417;42.686;23.244;2023-04-30T04:51:02;94051.47;;;12.18;66.93
10732;BME280;5417;42.686;23.244;2023-04-30T04:53:34;94056.94;;;12.25;67.24
10732;BME280;5417;42.686;23.244;2023-04-30T04:56:02;94041.44;;;12.14;66.88
10732;BME280;5417;42.686;23.244;2023-04-30T04:58:30;94054.59;;;12.22;66.45
10732;BME280;5417;42.686;23.244;2023-04-30T05:00:57;94063.25;;;12.22;66.98
10732;BME280;5417;42.686;23.244;2023-04-30T05:03:24;94039.84;;;11.93;67.78
10732;BME280;5417;42.686;23.244;2023-04-30T05:06:02;94056.53;;;12.20;67.69
10732;BME280;5417;42.686;23.244;2023-04-30T05:08:28;94046.28;;;12.09;68.13
10732;BME280;5417;42.686;23.244;2023-04-30T05:10:57;94051.06;;;12.13;68.76
10732;BME280;5417;42.686;23.244;2023-04-30T05:17:05;94062.63;;;12.38;68.63
10732;BME280;5417;42.686;23.244;2023-04-30T05:19:33;94060.09;;;12.56;68.81
10732;BME280;5417;42.686;23.244;2023-04-30T05:22:25;94053.38;;;12.53;67.76
10732;BME280;5417;42.686;23.244;2023-04-30T05:25:12;94062.66;;;12.66;67.81
10732;BME280;5417;42.686;23.244;2023-04-30T05:28:17;94065.75;;;12.79;68.01
10732;BME280;5417;42.686;23.244;2023-04-30T05:37:03;94042.34;;;12.59;68.09
10732;BME280;5417;42.686;23.244;2023-04-30T05:39:30;94052.66;;;12.61;67.71
10732;BME280;5417;42.686;23.244;2023-04-30T05:42:00;94062.88;;;12.54;68.95
10732;BME280;5417;42.686;23.244;2023-04-30T05:44:27;94068.78;;;12.47;69.14
10732;BME280;5417;42.686;23.244;2023-04-30T05:46:54;94056.00;;;12.53;67.59
10732;BME280;5417;42.686;23.244;2023-04-30T05:49:21;94068.38;;;12.51;67.56
10732;BME280;5417;42.686;23.244;2023-04-30T05:58:08;94064.25;;;12.76;67.89
10732;BME280;5417;42.686;23.244;2023-04-30T06:00:35;94072.31;;;12.83;67.92
10732;BME280;5417;42.686;23.244;2023-04-30T06:03:03;94078.69;;;12.98;67.78
10732;BME280;5417;42.686;23.244;2023-04-30T06:05:30;94070.59;;;13.01;67.48
10732;BME280;5417;42.686;23.244;2023-04-30T06:07:57;94059.38;;;13.09;67.50
10732;BME280;5417;42.686;23.244;2023-04-30T06:10:24;94071.28;;;13.39;67.80
10732;BME280;5417;42.686;23.244;2023-04-30T06:12:51;94079.88;;;13.49;69.32
10732;BME280;5417;42.686;23.244;2023-04-30T06:15:20;94064.50;;;13.28;66.46
10732;BME280;5417;42.686;23.244;2023-04-30T06:18:02;94082.28;;;13.24;67.58
10732;BME280;5417;42.686;23.244;2023-04-30T06:20:29;94069.53;;;13.12;67.55
10732;BME280;5417;42.686;23.244;2023-04-30T06:22:57;94081.91;;;13.19;67.90
10732;BME280;5417;42.686;23.244;2023-04-30T06:25:24;94078.09;;;13.32;68.37
10732;BME280;5417;42.686;23.244;2023-04-30T06:27:51;94085.41;;;13.28;67.50
10732;BME280;5417;42.686;23.244;2023-04-30T06:30:19;94081.75;;;13.21;68.21
10732;BME280;5417;42.686;23.244;2023-04-30T06:32:46;94085.84;;;13.23;68.12
10732;BME280;5417;42.686;23.244;2023-04-30T06:35:13;94086.00;;;13.22;68.30
10732;BME280;5417;42.686;23.244;2023-04-30T06:37:40;94076.44;;;13.48;67.99
10732;BME280;5417;42.686;23.244;2023-04-30T06:40:28;94075.84;;;13.98;67.07
10732;BME280;5417;42.686;23.244;2023-04-30T06:42:55;94071.16;;;14.28;64.06
10732;BME280;5417;42.686;23.244;2023-04-30T06:45:23;94073.19;;;14.68;65.23
10732;BME280;5417;42.686;23.244;2023-04-30T06:53:03;94078.94;;;15.22;62.85
10732;BME280;5417;42.686;23.244;2023-04-30T06:54:47;94055.44;;;15.04;61.86
10732;BME280;5417;42.686;23.244;2023-04-30T06:57:13;94077.06;;;15.06;62.80
10732;BME280;5417;42.686;23.244;2023-04-30T07:00:04;94083.19;;;15.14;62.51
10732;BME280;5417;42.686;23.244;2023-04-30T07:02:32;94085.34;;;15.19;63.09
10732;BME280;5417;42.686;23.244;2023-04-30T07:05:58;94082.53;;;15.12;63.35
10732;BME280;5417;42.686;23.244;2023-04-30T07:08:10;94076.31;;;15.13;63.17
10732;BME280;5417;42.686;23.244;2023-04-30T07:10:37;94084.53;;;15.27;62.82
10732;BME280;5417;42.686;23.244;2023-04-30T07:13:05;94083.53;;;15.28;62.87
10732;BME280;5417;42.686;23.244;2023-04-30T07:15:32;94085.19;;;15.37;62.49
10732;BME280;5417;42.686;23.244;2023-04-30T07:18:01;94087.50;;;15.40;61.58
10732;BME280;5417;42.686;23.244;2023-04-30T07:20:28;94074.06;;;15.35;60.79
10732;BME280;5417;42.686;23.244;2023-04-30T07:22:55;94077.16;;;15.38;60.38
10732;BME280;5417;42.686;23.244;2023-04-30T07:25:22;94077.50;;;15.35;61.68
10732;BME280;5417;42.686;23.244;2023-04-30T07:31:02;94096.16;;;15.32;62.46
10732;BME280;5417;42.686;23.244;2023-04-30T07:33:30;94090.09;;;15.24;62.37
10732;BME280;5417;42.686;23.244;2023-04-30T07:35:57;94095.81;;;15.11;62.85
10732;BME280;5417;42.686;23.244;2023-04-30T07:38:24;94086.69;;;14.89;61.54
10732;BME280;5417;42.686;23.244;2023-04-30T07:40:51;94094.88;;;14.86;60.79
10732;BME280;5417;42.686;23.244;2023-04-30T07:43:18;94093.91;;;14.87;61.22
10732;BME280;5417;42.686;23.244;2023-04-30T07:45:45;94098.00;;;14.90;61.40
10732;BME280;5417;42.686;23.244;2023-04-30T07:48:53;94087.69;;;14.96;61.79
10732;BME280;5417;42.686;23.244;2023-04-30T07:51:07;94103.28;;;14.98;61.16
10732;BME280;5417;42.686;23.244;2023-04-30T07:53:34;94096.19;;;14.90;61.92
10732;BME280;5417;42.686;23.244;2023-04-30T07:56:55;94093.25;;;14.93;60.55
10732;BME280;5417;42.686;23.244;2023-04-30T08:00:46;94091.66;;;15.00;61.05
10732;BME280;5417;42.686;23.244;2023-04-30T08:02:48;94094.66;;;15.13;60.25
10732;BME280;5417;42.686;23.244;2023-04-30T08:05:14;94088.47;;;15.31;59.16
10732;BME280;5417;42.686;23.244;2023-04-30T08:07:43;94098.66;;;15.42;58.30
10732;BME280;5417;42.686;23.244;2023-04-30T08:10:10;94093.09;;;15.53;57.77
10732;BME280;5417;42.686;23.244;2023-04-30T08:12:36;94108.66;;;15.55;57.79
10732;BME280;5417;42.686;23.244;2023-04-30T08:15:04;94109.72;;;15.62;56.64
10732;BME280;5417;42.686;23.244;2023-04-30T08:17:32;94105.53;;;15.51;56.92
10732;BME280;5417;42.686;23.244;2023-04-30T08:19:59;94106.19;;;15.53;56.76
10732;BME280;5417;42.686;23.244;2023-04-30T08:22:26;94114.22;;;15.52;56.98
10732;BME280;5417;42.686;23.244;2023-04-30T08:25:13;94108.81;;;15.53;56.06
10732;BME280;5417;42.686;23.244;2023-04-30T08:27:40;94102.59;;;15.54;56.19
10732;BME280;5417;42.686;23.244;2023-04-30T08:30:08;94104.75;;;15.59;56.18
10732;BME280;5417;42.686;23.244;2023-04-30T08:33:13;94099.88;;;15.64;55.59
10732;BME280;5417;42.686;23.244;2023-04-30T08:35:29;94107.09;;;15.78;54.62
10732;BME280;5417;42.686;23.244;2023-04-30T08:37:56;94111.03;;;15.90;53.84
10732;BME280;5417;42.686;23.244;2023-04-30T08:40:24;94104.63;;;16.01;54.71
10732;BME280;5417;42.686;23.244;2023-04-30T08:46:19;94097.41;;;16.11;51.84
10732;BME280;5417;42.686;23.244;2023-04-30T08:48:46;94092.66;;;15.98;51.53
10732;BME280;5417;42.686;23.244;2023-04-30T08:54:41;94078.56;;;16.16;51.91
10732;BME280;5417;42.686;23.244;2023-04-30T08:57:11;94091.81;;;16.30;50.76
10732;BME280;5417;42.686;23.244;2023-04-30T08:59:38;94092.41;;;16.57;51.35
10732;BME280;5417;42.686;23.244;2023-04-30T09:02:06;94081.84;;;16.81;49.71
10732;BME280;5417;42.686;23.244;2023-04-30T09:04:58;94080.16;;;16.96;49.88
10732;BME280;5417;42.686;23.244;2023-04-30T09:07:26;94081.06;;;17.12;49.82
10732;BME280;5417;42.686;23.244;2023-04-30T09:19:52;94058.34;;;17.95;50.17
10732;BME280;5417;42.686;23.244;2023-04-30T09:28:22;94045.59;;;18.22;46.93
10732;BME280;5417;42.686;23.244;2023-04-30T09:31:02;94038.06;;;18.48;48.02
10732;BME280;5417;42.686;23.244;2023-04-30T09:33:44;94027.81;;;18.83;46.57
10732;BME280;5417;42.686;23.244;2023-04-30T09:36:13;94022.91;;;18.65;44.59
10732;BME280;5417;42.686;23.244;2023-04-30T09:38:40;94022.34;;;18.55;45.78
10732;BME280;5417;42.686;23.244;2023-04-30T09:41:20;94025.69;;;18.19;45.32
10732;BME280;5417;42.686;23.244;2023-04-30T09:47:38;94012.16;;;18.52;46.67
10732;BME280;5417;42.686;23.244;2023-04-30T09:50:06;94023.34;;;18.39;48.44
10732;BME280;5417;42.686;23.244;2023-04-30T09:52:34;94012.09;;;18.45;47.33
10732;BME280;5417;42.686;23.244;2023-04-30T09:55:03;94009.22;;;18.17;46.77
10732;BME280;5417;42.686;23.244;2023-04-30T09:57:30;94010.63;;;18.28;46.34
10732;BME280;5417;42.686;23.244;2023-04-30T10:00:01;94004.19;;;18.31;46.54
10732;BME280;5417;42.686;23.244;2023-04-30T10:02:30;94011.97;;;18.53;47.47
10732;BME280;5417;42.686;23.244;2023-04-30T10:05:00;94010.72;;;18.64;47.85
10732;BME280;5417;42.686;23.244;2023-04-30T10:07:30;94002.84;;;18.79;45.71
10732;BME280;5417;42.686;23.244;2023-04-30T10:10:03;94011.19;;;18.38;45.29
10732;BME280;5417;42.686;23.244;2023-04-30T10:12:42;94015.63;;;18.23;46.22
10732;BME280;5417;42.686;23.244;2023-04-30T10:15:13;94003.06;;;18.10;46.08
10732;BME280;5417;42.686;23.244;2023-04-30T10:17:43;94025.91;;;17.95;47.35
10732;BME280;5417;42.686;23.244;2023-04-30T10:20:30;94002.84;;;17.06;51.33
10732;BME280;5417;42.686;23.244;2023-04-30T10:22:58;94040.41;;;16.36;52.24
10732;BME280;5417;42.686;23.244;2023-04-30T10:25:27;94068.22;;;15.90;59.41
10732;BME280;5417;42.686;23.244;2023-04-30T10:27:55;94064.13;;;15.63;60.68
10732;BME280;5417;42.686;23.244;2023-04-30T10:30:22;94065.19;;;15.28;63.48
10732;BME280;5417;42.686;23.244;2023-04-30T10:32:54;94064.63;;;15.00;65.90
10732;BME280;5417;42.686;23.244;2023-04-30T10:35:54;94065.31;;;15.10;66.08
10732;BME280;5417;42.686;23.244;2023-04-30T10:39:42;94051.91;;;15.21;65.92
10732;BME280;5417;42.686;23.244;2023-04-30T10:41:45;94055.22;;;15.56;61.19
10732;BME280;5417;42.686;23.244;2023-04-30T10:44:13;94041.50;;;15.78;62.37
10732;BME280;5417;42.686;23.244;2023-04-30T10:49:30;94040.66;;;15.94;59.66
10732;BME280;5417;42.686;23.244;2023-04-30T10:50:29;94039.63;;;16.11;57.66
10732;BME280;5417;42.686;23.244;2023-04-30T10:53:01;94045.56;;;16.21;56.40
10732;BME280;5417;42.686;23.244;2023-04-30T10:55:33;94033.69;;;16.33;55.43
10732;BME280;5417;42.686;23.244;2023-04-30T10:58:42;94038.38;;;16.54;52.43
10732;BME280;5417;42.686;23.244;2023-04-30T11:01:28;94032.00;;;16.96;54.70
10732;BME280;5417;42.686;23.244;2023-04-30T11:04:10;94020.97;;;17.31;51.15
10732;BME280;5417;42.686;23.244;2023-04-30T11:06:54;94020.25;;;17.60;48.58
10732;BME280;5417;42.686;23.244;2023-04-30T11:09:34;94022.72;;;17.85;49.46
10732;BME280;5417;42.686;23.244;2023-04-30T11:12:36;94025.75;;;18.11;50.09
10732;BME280;5417;42.686;23.244;2023-04-30T11:15:12;94024.91;;;17.96;48.44
10732;BME280;5417;42.686;23.244;2023-04-30T11:17:39;94024.94;;;18.11;50.25
10732;BME280;5417;42.686;23.244;2023-04-30T11:20:14;94017.47;;;17.85;47.71
10732;BME280;5417;42.686;23.244;2023-04-30T11:23:16;94024.91;;;17.81;48.46
10732;BME280;5417;42.686;23.244;2023-04-30T11:25:48;94018.59;;;17.59;48.35
10732;BME280;5417;42.686;23.244;2023-04-30T11:28:20;94016.69;;;17.53;48.36
10732;BME280;5417;42.686;23.244;2023-04-30T11:30:54;94017.59;;;17.60;49.90
10732;BME280;5417;42.686;23.244;2023-04-30T11:33:32;94002.91;;;17.74;47.93
10732;BME280;5417;42.686;23.244;2023-04-30T11:36:13;93996.22;;;17.86;48.80
10732;BME280;5417;42.686;23.244;2023-04-30T11:38:40;93991.22;;;17.91;47.67
10732;BME280;5417;42.686;23.244;2023-04-30T11:41:11;93991.84;;;17.79;47.38
10732;BME280;5417;42.686;23.244;2023-04-30T11:43:38;94000.66;;;17.86;47.32
10732;BME280;5417;42.686;23.244;2023-04-30T11:46:08;93989.47;;;17.61;48.53
10732;BME280;5417;42.686;23.244;2023-04-30T11:48:43;94002.09;;;17.65;48.47
10732;BME280;5417;42.686;23.244;2023-04-30T11:51:14;94000.88;;;17.99;49.12
10732;BME280;5417;42.686;23.244;2023-04-30T11:53:42;93982.97;;;18.09;47.90
10732;BME280;5417;42.686;23.244;2023-04-30T11:56:08;93989.56;;;18.28;46.45
10732;BME280;5417;42.686;23.244;2023-04-30T11:58:36;93996.09;;;18.47;47.11
10732;BME280;5417;42.686;23.244;2023-04-30T12:01:06;93987.28;;;18.69;47.37
10732;BME280;5417;42.686;23.244;2023-04-30T12:05:10;93991.53;;;18.85;48.41
10732;BME280;5417;42.686;23.244;2023-04-30T12:07:07;93992.91;;;18.81;47.44
10732;BME280;5417;42.686;23.244;2023-04-30T12:09:52;94008.66;;;18.74;46.93
10732;BME280;5417;42.686;23.244;2023-04-30T12:12:26;93986.38;;;18.47;46.37
10732;BME280;5417;42.686;23.244;2023-04-30T12:18:57;94005.38;;;18.28;50.46
10732;BME280;5417;42.686;23.244;2023-04-30T12:21:24;94019.53;;;18.42;51.09
10732;BME280;5417;42.686;23.244;2023-04-30T12:23:53;94032.16;;;18.32;50.92
10732;BME280;5417;42.686;23.244;2023-04-30T12:26:20;94014.50;;;18.03;50.57
10732;BME280;5417;42.686;23.244;2023-04-30T12:28:48;94033.72;;;17.88;50.15
10732;BME280;5417;42.686;23.244;2023-04-30T12:31:16;94038.50;;;17.62;50.05
10732;BME280;5417;42.686;23.244;2023-04-30T12:33:43;94021.66;;;17.48;53.51
10732;BME280;5417;42.686;23.244;2023-04-30T12:36:20;94035.75;;;17.55;52.14
10732;BME280;5417;42.686;23.244;2023-04-30T12:38:47;94024.34;;;17.40;52.69
10732;BME280;5417;42.686;23.244;2023-04-30T12:41:13;94034.59;;;17.35;52.90
10732;BME280;5417;42.686;23.244;2023-04-30T12:44:17;94041.19;;;17.31;53.16
10732;BME280;5417;42.686;23.244;2023-04-30T12:47:09;94044.97;;;17.28;54.00
10732;BME280;5417;42.686;23.244;2023-04-30T12:49:35;94057.78;;;17.31;54.63
10732;BME280;5417;42.686;23.244;2023-04-30T12:52:08;94046.56;;;17.38;54.07
10732;BME280;5417;42.686;23.244;2023-04-30T12:54:37;94051.81;;;17.38;54.08
10732;BME280;5417;42.686;23.244;2023-04-30T12:57:58;94051.94;;;17.44;54.06
10732;BME280;5417;42.686;23.244;2023-04-30T13:00:19;94035.97;;;17.46;53.43
10732;BME280;5417;42.686;23.244;2023-04-30T13:02:47;94039.44;;;17.46;53.82
10732;BME280;5417;42.686;23.244;2023-04-30T13:06:09;94030.78;;;17.60;54.45
10732;BME280;5417;42.686;23.244;2023-04-30T13:26:29;93993.09;;;17.60;54.54
10732;BME280;5417;42.686;23.244;2023-04-30T13:35:49;93986.50;;;17.64;52.68
10732;BME280;5417;42.686;23.244;2023-04-30T13:44:41;93983.13;;;17.55;52.93
10732;BME280;5417;42.686;23.244;2023-04-30T13:47:09;93983.28;;;17.54;52.93
10732;BME280;5417;42.686;23.244;2023-04-30T13:49:36;93989.53;;;17.53;52.98
10732;BME280;5417;42.686;23.244;2023-04-30T13:56:01;93991.53;;;17.51;51.91
10732;BME280;5417;42.686;23.244;2023-04-30T13:58:28;93982.81;;;17.50;51.38
10732;BME280;5417;42.686;23.244;2023-04-30T14:00:56;93986.75;;;17.54;51.21
10732;BME280;5417;42.686;23.244;2023-04-30T14:03:23;93965.97;;;17.59;50.92
10732;BME280;5417;42.686;23.244;2023-04-30T14:06:14;93980.84;;;17.75;50.72
10732;BME280;5417;42.686;23.244;2023-04-30T14:09:35;93973.78;;;17.76;50.60
10732;BME280;5417;42.686;23.244;2023-04-30T14:11:52;93975.47;;;17.69;51.00
10732;BME280;5417;42.686;23.244;2023-04-30T14:14:20;93964.63;;;17.63;51.59
10732;BME280;5417;42.686;23.244;2023-04-30T14:17:02;93975.13;;;17.72;51.23
10732;BME280;5417;42.686;23.244;2023-04-30T14:19:29;93978.03;;;17.77;50.63
10732;BME280;5417;42.686;23.244;2023-04-30T14:21:56;93974.25;;;17.79;50.18
10732;BME280;5417;42.686;23.244;2023-04-30T14:24:24;93970.97;;;17.77;50.12
10732;BME280;5417;42.686;23.244;2023-04-30T14:28:17;93970.06;;;17.85;49.45
10732;BME280;5417;42.686;23.244;2023-04-30T14:31:10;93973.16;;;18.03;47.92
10732;BME280;5417;42.686;23.244;2023-04-30T14:33:31;93963.81;;;18.15;47.40
10732;BME280;5417;42.686;23.244;2023-04-30T14:35:59;93956.28;;;18.12;48.11
10732;BME280;5417;42.686;23.244;2023-04-30T14:38:26;93956.56;;;18.17;48.63
10732;BME280;5417;42.686;23.244;2023-04-30T14:41:19;93955.47;;;18.41;46.94
10732;BME280;5417;42.686;23.244;2023-04-30T15:09:00;93961.66;;;17.66;47.26
10732;BME280;5417;42.686;23.244;2023-04-30T15:11:28;93962.47;;;17.67;46.66
10732;BME280;5417;42.686;23.244;2023-04-30T15:33:58;93966.06;;;17.74;47.82
10732;BME280;5417;42.686;23.244;2023-04-30T15:45:58;93973.16;;;17.88;49.56
10732;BME280;5417;42.686;23.244;2023-04-30T15:48:33;93966.16;;;17.81;50.48
10732;BME280;5417;42.686;23.244;2023-04-30T15:51:02;93970.53;;;17.88;48.89
10732;BME280;5417;42.686;23.244;2023-04-30T15:53:29;93960.38;;;18.00;49.81
10732;BME280;5417;42.686;23.244;2023-04-30T15:55:56;93963.63;;;18.17;52.57